createdAt,value
2022-11-17T00:03:49.161Z,18.3
2022-11-17T00:13:57.086Z,18.3
2022-11-17T00:24:04.999Z,18.4
2022-11-17T00:34:13.012Z,18.6
2022-11-17T00:44:21.114Z,18.5
2022-11-17T00:54:29.145Z,18.7
2022-11-17T01:04:37.123Z,18.7
2022-11-17T01:14:46.281Z,18.6
2022-11-17T01:24:54.854Z,18.3
2022-11-17T01:35:02.897Z,18.3
2022-11-17T01:45:10.868Z,18.4
2022-11-17T01:55:18.921Z,18.3
2022-11-17T02:05:26.888Z,18.3
2022-11-17T02:15:34.462Z,18.3
2022-11-17T02:25:42.556Z,18.7
2022-11-17T02:35:50.554Z,18.6
2022-11-17T02:45:58.240Z,18.6
2022-11-17T02:56:06.180Z,18.6
2022-11-17T03:06:14.207Z,18.6
2022-11-17T03:16:22.201Z,18.7
2022-11-17T03:26:30.214Z,18.6
2022-11-17T03:36:38.254Z,18.7
2022-11-17T03:56:49.880Z,18.8
2022-11-17T04:06:57.933Z,18.8
2022-11-17T04:17:07.175Z,18.8
2022-11-17T04:27:11.903Z,18.9
2022-11-17T04:37:20.021Z,18.8
2022-11-17T04:47:28.199Z,18.7
2022-11-17T04:57:36.003Z,18.7
2022-11-17T05:07:44.094Z,18.7
2022-11-17T05:17:55.178Z,18.8
2022-11-17T05:27:58.757Z,18.8
2022-11-17T05:38:06.807Z,18.7
2022-11-17T05:48:16.028Z,18.5
2022-11-17T05:58:24.456Z,18.6
2022-11-17T06:08:32.898Z,18.6
2022-11-17T06:18:41.505Z,18.6
2022-11-17T06:28:42.008Z,19.1
2022-11-17T06:38:49.897Z,19
2022-11-17T06:48:58.079Z,18.8
2022-11-17T06:59:06.819Z,18.9
2022-11-17T07:09:16.588Z,18.7
2022-11-17T07:19:25.523Z,18.7
2022-11-17T07:29:34.400Z,18.8
2022-11-17T07:39:43.296Z,18.6
2022-11-17T07:49:52.100Z,18.6
2022-11-17T07:59:52.246Z,18.8
2022-11-17T08:10:01.061Z,18.8
2022-11-17T08:20:11.002Z,19
2022-11-17T08:30:19.776Z,19.1
2022-11-17T08:40:29.617Z,19.2
2022-11-17T08:50:37.276Z,19.2
2022-11-17T09:00:45.851Z,19
2022-11-17T09:10:53.642Z,19.1
2022-11-17T09:21:02.080Z,19.2
2022-11-17T09:31:10.466Z,19.5
2022-11-17T09:41:18.604Z,19.8
2022-11-17T09:51:28.302Z,20.3
2022-11-17T10:01:29.473Z,20.6
2022-11-17T10:11:29.796Z,21.4
2022-11-17T10:21:30.633Z,21.4
2022-11-17T10:31:38.832Z,21.2
2022-11-17T10:41:47.304Z,21.4
2022-11-17T10:51:55.703Z,21.4
2022-11-17T11:02:04.181Z,21.4
2022-11-17T11:12:12.731Z,21.7
2022-11-17T11:22:21.335Z,21.6
2022-11-17T11:32:28.793Z,21.7
2022-11-17T11:42:37.015Z,21.8
2022-11-17T11:52:45.379Z,22.1
2022-11-17T12:02:53.843Z,22.5
2022-11-17T12:13:03.405Z,22.8
2022-11-17T12:23:11.640Z,22.6
2022-11-17T12:33:19.958Z,23
2022-11-17T12:43:28.388Z,23.4
2022-11-17T12:53:38.747Z,23.7
2022-11-17T13:03:38.207Z,23.7
2022-11-17T13:13:47.254Z,23.8
2022-11-17T13:23:54.478Z,23.7
2022-11-17T13:34:02.783Z,23.6
2022-11-17T13:44:10.602Z,24.2
2022-11-17T13:54:18.446Z,24.2
2022-11-17T14:04:27.227Z,24.1
2022-11-17T14:14:34.771Z,24.3
2022-11-17T14:24:43.110Z,24.4
2022-11-17T14:34:51.379Z,24.4
2022-11-17T14:44:59.949Z,24.5
2022-11-17T14:55:08.538Z,24.7
2022-11-17T15:05:16.952Z,24.5
2022-11-17T15:15:25.053Z,24.5
2022-11-17T15:25:33.088Z,24
2022-11-17T15:35:41.302Z,23.8
2022-11-17T15:45:49.447Z,23.6
2022-11-17T15:55:57.622Z,23.5
2022-11-17T16:06:05.894Z,23
2022-11-17T16:16:13.941Z,22.9
2022-11-17T16:26:22.011Z,22.7
2022-11-17T16:36:34.504Z,22.3
2022-11-17T16:46:38.428Z,22.3
2022-11-17T16:56:46.875Z,22.2
2022-11-17T17:06:55.073Z,22
2022-11-17T17:17:03.328Z,22.1
2022-11-17T17:27:11.365Z,22
2022-11-17T17:37:20.599Z,21.6
2022-11-17T17:47:29.116Z,21.4
2022-11-17T17:57:32.687Z,21
2022-11-17T18:07:38.627Z,21.2
2022-11-17T18:17:48.385Z,21.5
2022-11-17T18:27:51.663Z,21.8
2022-11-17T18:37:53.643Z,21.8
2022-11-17T18:47:53.580Z,22
2022-11-17T18:58:00.683Z,21.7
2022-11-17T19:08:01.781Z,21.8
2022-11-17T19:18:09.487Z,21.8
2022-11-17T19:28:09.199Z,21.7
2022-11-17T19:38:12.539Z,21.5
2022-11-17T19:48:14.142Z,21.5
2022-11-17T19:58:17.620Z,21.6
2022-11-17T20:08:27.128Z,21.5
2022-11-17T20:18:35.310Z,21.5
2022-11-17T20:28:40.343Z,21.5
2022-11-17T20:38:41.147Z,21.6
2022-11-17T20:48:49.674Z,21.5
2022-11-17T20:58:58.226Z,21.4
2022-11-17T21:09:06.328Z,21.3
2022-11-17T21:19:16.767Z,21.2
2022-11-17T21:29:15.289Z,21.1
2022-11-17T21:39:23.488Z,20.9
2022-11-17T21:49:31.662Z,20.8
2022-11-17T21:59:39.862Z,20.7
2022-11-17T22:09:48.000Z,20.6
2022-11-17T22:19:56.184Z,20.5
2022-11-17T22:30:04.389Z,20.3
2022-11-17T22:40:12.410Z,20.1
2022-11-17T22:50:20.555Z,19.9
2022-11-17T23:00:28.922Z,19.8
2022-11-17T23:10:37.050Z,19.7
2022-11-17T23:20:45.196Z,19.6
2022-11-17T23:30:53.238Z,19.7
2022-11-17T23:41:01.465Z,19.6
2022-11-17T23:51:09.590Z,19.3
